To NAV CANADA Home Page Login to a new session Search on AWWS site Feedback and Comments Disclaimer Vers la page française équivalente Tips FAQ What's new on the site To the Forecasts and Observations / NOTAM section To "File a Flight Plan" website Publications and other links Update of the User's profile FIC Telephone Numbers My Weather Data Folder Route Weather Data Regional Weather Data Local Weather Data To the Forecasts and Observations / NOTAM section
Request Generated 08/30/2016 at 20:41:59 UTC . Weather information available at that time is displayed.

METAR/TAF

GOOSE BAY/NL    

SPECI CYYR 302037Z 32012KT 15SM -SHRA SCT048 BKN081 OVC250 14/05 A2978 RMK CU3AC4CS0 SLP087=
METAR CYYR 302000Z 30013KT 15SM FEW041 FEW081 OVC250 14/04 A2978 RMK CU1AC1CS2 HALO SLP085=
METAR CYYR 301900Z 29012KT 15SM FEW041 BKN081 OVC250 14/04 A2979 RMK CU2AC4CI0 VIRGA SLP089=
METAR CYYR 301800Z 34014KT 15SM SCT041 BKN078 OVC250 14/03 A2980 RMK CU3AC4CI0 VIRGA SLP092=

TAF CYYR 301730Z 3018/3118 33015KT P6SM SCT040 BKN070 TEMPO 3018/3024
P6SM -SHRA BKN040
FM310000 31006KT P6SM OVC040 TEMPO 3100/3118 P6SM -SHRA FEW020
OVC030
RMK NXT FCST BY 310000Z=
Your time UTC time
Weather data provided by Environment Canada and NAV CANADA